Time;durP1;ratioP1;P1;durP2;ratioP2;P2;SDS_P1;SDS_P2;PMS_P1;PMS_P2;Temp;Humidity;BMP_temperature;BMP_pressure;BME280_temperature;BME280_humidity;BME280_pressure;Samples;Min_cycle;Max_cycle;Signal;HPM_P1;HPM_P2
2023/03/25 00:01:31;;;;;;;;;;;;;;;4.74;69.66;97979.56;5064452;28;4965;-78
2023/03/25 00:03:59;;;;;;;;;;;;;;;4.73;69.82;97982.47;5045452;28;4990;-78
2023/03/25 00:06:26;;;;;;;;;;;;;;;4.71;69.83;97981.91;5043827;28;3948;-77
2023/03/25 00:08:53;;;;;;;;;;;;;;;4.95;69.02;97979.84;5062101;28;4785;-77
2023/03/25 00:11:19;;;;;;;;;;;;;;;4.95;68.80;97970.00;5044493;28;4877;-77
2023/03/25 00:13:46;;;;;;;;;;;;;;;4.72;69.71;97976.31;5042178;28;5003;-78
2023/03/25 00:16:13;;;;;;;;;;;;;;;4.73;69.49;97975.25;5062472;28;4813;-78
2023/03/25 00:18:40;;;;;;;;;;;;;;;4.64;69.76;97974.06;5062945;28;4895;-78
2023/03/25 00:21:09;;;;;;;;;;;;;;;4.71;69.72;97977.38;5065181;28;4984;-76
2023/03/25 00:23:36;;;;;;;;;;;;;;;4.64;69.77;97975.94;5044266;28;4765;-77
2023/03/25 00:26:02;;;;;;;;;;;;;;;4.75;69.77;97980.38;5061601;28;4812;-77
2023/03/25 00:28:29;;;;;;;;;;;;;;;4.95;69.05;97982.53;5065521;28;4961;-79
2023/03/25 00:30:56;;;;;;;;;;;;;;;4.72;69.30;97976.31;5049761;28;4868;-78
2023/03/25 00:33:23;;;;;;;;;;;;;;;4.77;69.33;97980.94;5064829;28;4964;-77
2023/03/25 00:35:51;;;;;;;;;;;;;;;4.64;69.72;97973.25;5038588;28;5161;-77
2023/03/25 00:38:17;;;;;;;;;;;;;;;4.63;70.04;97964.47;5063586;28;4848;-77
2023/03/25 00:40:45;;;;;;;;;;;;;;;4.73;69.47;97974.47;5061074;28;4954;-79
2023/03/25 00:43:13;;;;;;;;;;;;;;;4.66;69.63;97971.97;5060249;28;4933;-78
2023/03/25 00:45:40;;;;;;;;;;;;;;;4.69;69.64;97968.81;5065031;28;4800;-77
2023/03/25 00:48:06;;;;;;;;;;;;;;;4.70;69.48;97959.75;5044228;28;4799;-77
2023/03/25 00:50:33;;;;;;;;;;;;;;;4.64;69.93;97965.25;5063366;28;4950;-77
2023/03/25 00:53:00;;;;;;;;;;;;;;;4.59;70.05;97962.50;5063075;28;4968;-78
2023/03/25 00:55:26;;;;;;;;;;;;;;;4.70;69.73;97951.75;5048347;28;5031;-77
2023/03/25 00:57:53;;;;;;;;;;;;;;;4.63;69.43;97961.81;5047433;28;4040;-78
2023/03/25 01:00:19;;;;;;;;;;;;;;;5.01;68.58;97962.88;5061696;28;4872;-77
2023/03/25 01:02:46;;;;;;;;;;;;;;;4.74;69.02;97960.91;5044315;28;4207;-78
2023/03/25 01:05:12;;;;;;;;;;;;;;;4.63;69.74;97963.66;5067434;28;4904;-78
2023/03/25 01:07:40;;;;;;;;;;;;;;;4.63;69.78;97969.78;5066465;28;4925;-78
2023/03/25 01:10:07;;;;;;;;;;;;;;;4.92;68.82;97959.81;5045630;28;4857;-78
2023/03/25 01:12:33;;;;;;;;;;;;;;;4.75;68.96;97961.69;5058986;28;4938;-77
2023/03/25 01:15:00;;;;;;;;;;;;;;;4.66;69.32;97963.19;5065513;28;4942;-79
2023/03/25 01:17:26;;;;;;;;;;;;;;;4.78;69.21;97954.00;5048635;28;5191;-77
2023/03/25 01:19:53;;;;;;;;;;;;;;;4.72;69.30;97967.53;5063424;28;4998;-77
2023/03/25 01:22:19;;;;;;;;;;;;;;;4.60;69.68;97958.81;5065724;28;5518;-76
2023/03/25 01:24:46;;;;;;;;;;;;;;;4.84;68.88;97957.56;5061813;28;4931;-78
2023/03/25 01:27:12;;;;;;;;;;;;;;;4.72;69.19;97956.84;5043251;28;4715;-77
2023/03/25 01:29:39;;;;;;;;;;;;;;;4.65;69.44;97954.38;5047215;28;4884;-78
2023/03/25 01:32:06;;;;;;;;;;;;;;;4.73;69.27;97955.78;5062286;28;5046;-77
2023/03/25 01:34:37;;;;;;;;;;;;;;;4.65;69.48;97951.72;5062405;28;4910;-78
2023/03/25 01:37:03;;;;;;;;;;;;;;;4.61;69.59;97947.09;5058085;28;4913;-77
2023/03/25 01:39:30;;;;;;;;;;;;;;;4.64;69.81;97944.75;5064639;28;4788;-78
2023/03/25 01:41:57;;;;;;;;;;;;;;;4.61;69.64;97947.09;5040993;28;4882;-78
2023/03/25 01:44:23;;;;;;;;;;;;;;;4.77;69.05;97939.06;5053597;28;4548;-78
2023/03/25 01:46:51;;;;;;;;;;;;;;;4.65;69.33;97945.56;5029859;28;4638;-78
2023/03/25 01:49:20;;;;;;;;;;;;;;;4.57;69.72;97946.78;5047925;28;5084;-78
2023/03/25 01:51:46;;;;;;;;;;;;;;;4.54;70.06;97947.28;5049955;28;4849;-78
2023/03/25 01:54:16;;;;;;;;;;;;;;;4.54;70.02;97945.41;5028603;28;3897;-78
2023/03/25 01:56:45;;;;;;;;;;;;;;;4.51;69.84;97947.75;5051324;28;4746;-79
2023/03/25 01:59:12;;;;;;;;;;;;;;;4.51;69.83;97943.22;5027049;28;4963;-78
2023/03/25 02:01:38;;;;;;;;;;;;;;;4.50;69.96;97946.94;5040664;28;4992;-77
2023/03/25 02:04:08;;;;;;;;;;;;;;;4.54;70.00;97944.59;5042660;28;4914;-78
2023/03/25 02:06:35;;;;;;;;;;;;;;;4.61;69.54;97941.75;5047489;28;4599;-78
2023/03/25 02:09:02;;;;;;;;;;;;;;;4.81;68.93;97946.59;5044324;28;3984;-78
2023/03/25 02:11:29;;;;;;;;;;;;;;;4.85;68.49;97937.03;5045997;28;4720;-78
2023/03/25 02:13:55;;;;;;;;;;;;;;;4.84;68.83;97935.44;5049531;28;4586;-77
2023/03/25 02:16:22;;;;;;;;;;;;;;;4.85;68.69;97942.38;5049331;28;4826;-78
2023/03/25 02:18:48;;;;;;;;;;;;;;;4.83;68.81;97936.50;5052941;28;4008;-78
2023/03/25 02:21:17;;;;;;;;;;;;;;;4.95;68.26;97935.31;5050667;28;4800;-79
2023/03/25 02:23:43;;;;;;;;;;;;;;;4.95;68.12;97929.19;5030341;28;4685;-78
2023/03/25 02:26:10;;;;;;;;;;;;;;;4.81;68.65;97927.91;5029903;28;4855;-79
2023/03/25 02:28:36;;;;;;;;;;;;;;;5.01;68.10;97931.66;5035865;28;4636;-78
2023/03/25 02:31:03;;;;;;;;;;;;;;;5.04;67.88;97930.34;5031684;28;4641;-78
2023/03/25 02:33:29;;;;;;;;;;;;;;;4.81;68.47;97933.25;5032582;28;4974;-78
2023/03/25 02:35:56;;;;;;;;;;;;;;;4.81;68.55;97925.25;5031947;28;4624;-78
2023/03/25 02:38:23;;;;;;;;;;;;;;;4.79;68.67;97925.47;5033095;28;4851;-78
2023/03/25 02:40:51;;;;;;;;;;;;;;;4.84;68.60;97932.75;5053989;28;4089;-79
2023/03/25 02:43:17;;;;;;;;;;;;;;;4.95;67.90;97927.31;5055377;28;4568;-78
2023/03/25 02:45:44;;;;;;;;;;;;;;;4.94;68.06;97924.88;5065850;28;4934;-78
2023/03/25 02:48:10;;;;;;;;;;;;;;;4.89;68.27;97928.31;5056959;28;4585;-78
2023/03/25 02:50:37;;;;;;;;;;;;;;;5.05;67.91;97931.16;5051014;28;4501;-78
2023/03/25 02:53:05;;;;;;;;;;;;;;;5.00;67.97;97922.06;5051797;28;5037;-79
2023/03/25 02:55:32;;;;;;;;;;;;;;;5.04;67.67;97929.56;5052471;28;3990;-78
2023/03/25 02:58:00;;;;;;;;;;;;;;;4.95;67.97;97932.66;5031697;28;4836;-78
2023/03/25 03:00:27;;;;;;;;;;;;;;;4.98;67.92;97934.00;5049296;28;5047;-76
2023/03/25 03:02:58;;;;;;;;;;;;;;;5.05;67.71;97934.63;5053977;28;4793;-77
2023/03/25 03:05:24;;;;;;;;;;;;;;;5.01;67.90;97931.66;5047736;28;4025;-79
2023/03/25 03:07:51;;;;;;;;;;;;;;;5.04;67.71;97932.22;5030234;28;4688;-76
2023/03/25 03:10:18;;;;;;;;;;;;;;;4.99;67.83;97936.44;5052587;28;4710;-80
2023/03/25 03:12:44;;;;;;;;;;;;;;;5.10;67.41;97933.91;5028939;28;4798;-78
2023/03/25 03:15:11;;;;;;;;;;;;;;;5.04;67.53;97926.88;5050737;28;4769;-78
2023/03/25 03:17:38;;;;;;;;;;;;;;;5.02;67.90;97932.47;5050195;28;4582;-78
2023/03/25 03:20:04;;;;;;;;;;;;;;;5.22;67.05;97931.91;5033746;28;4406;-81
2023/03/25 03:22:34;;;;;;;;;;;;;;;5.11;67.47;97940.84;5051175;28;4719;-77
2023/03/25 03:25:00;;;;;;;;;;;;;;;5.10;67.43;97936.56;5049445;28;4856;-78
2023/03/25 03:27:28;;;;;;;;;;;;;;;5.06;67.49;97933.59;5048410;28;4544;-78
2023/03/25 03:29:55;;;;;;;;;;;;;;;5.16;67.18;97944.38;5052506;28;4957;-78
2023/03/25 03:32:21;;;;;;;;;;;;;;;5.13;67.40;97936.88;5050462;28;3781;-78
2023/03/25 03:34:48;;;;;;;;;;;;;;;5.16;67.25;97931.03;5051149;28;4709;-78
2023/03/25 03:37:15;;;;;;;;;;;;;;;5.12;67.27;97934.47;5050698;28;3803;-78
2023/03/25 03:39:41;;;;;;;;;;;;;;;5.14;67.18;97938.47;5050644;28;4818;-78
2023/03/25 03:42:08;;;;;;;;;;;;;;;5.18;67.06;97934.28;5034308;28;4351;-78
2023/03/25 03:44:34;;;;;;;;;;;;;;;5.20;67.10;97939.34;5030288;28;4734;-78
2023/03/25 03:47:01;;;;;;;;;;;;;;;5.19;67.16;97937.75;5056988;28;4777;-77
2023/03/25 03:49:28;;;;;;;;;;;;;;;5.21;67.30;97927.63;5065786;28;4764;-78
2023/03/25 03:51:54;;;;;;;;;;;;;;;5.28;66.84;97932.78;5062238;28;4841;-78
2023/03/25 03:54:21;;;;;;;;;;;;;;;5.22;66.93;97934.59;5046821;28;4854;-77
2023/03/25 03:56:48;;;;;;;;;;;;;;;5.25;66.99;97934.09;5030807;28;4442;-78
2023/03/25 03:59:15;;;;;;;;;;;;;;;5.19;67.02;97932.41;5049220;28;4796;-79
2023/03/25 04:01:44;;;;;;;;;;;;;;;5.17;67.17;97935.31;5027560;28;4900;-77
2023/03/25 04:04:11;;;;;;;;;;;;;;;5.29;66.73;97939.72;5031910;28;4915;-77
2023/03/25 04:06:40;;;;;;;;;;;;;;;5.31;66.64;97941.09;5051019;28;4501;-78
2023/03/25 04:09:07;;;;;;;;;;;;;;;5.39;66.27;97943.34;5046974;28;4598;-77
2023/03/25 04:11:33;;;;;;;;;;;;;;;5.32;66.50;97936.56;5049649;28;5006;-77
2023/03/25 04:14:20;;;;;;;;;;;;;;;5.22;66.99;97935.38;5055081;28;3663;-77
2023/03/25 04:17:06;;;;;;;;;;;;;;;5.37;66.45;97937.44;5056245;28;5128;-79
2023/03/25 04:19:33;;;;;;;;;;;;;;;5.28;66.71;97944.25;5058954;28;4572;-78
2023/03/25 04:22:00;;;;;;;;;;;;;;;5.25;66.83;97936.75;5052778;28;4780;-75
2023/03/25 04:24:53;;;;;;;;;;;;;;;5.35;66.60;97942.19;5047684;28;4794;-76
2023/03/25 04:27:21;;;;;;;;;;;;;;;5.28;66.82;97938.13;5066488;28;4891;-78
2023/03/25 04:29:48;;;;;;;;;;;;;;;5.32;66.69;97941.88;5066128;28;4950;-76
2023/03/25 04:32:14;;;;;;;;;;;;;;;5.38;66.44;97938.22;5064739;28;3816;-77
2023/03/25 04:35:02;;;;;;;;;;;;;;;5.22;67.15;97942.59;5061703;28;4805;-77
2023/03/25 04:37:52;;;;;;;;;;;;;;;5.20;67.11;97939.34;5065019;28;4972;-78
2023/03/25 04:40:39;;;;;;;;;;;;;;;5.22;67.00;97938.06;5063708;28;4937;-77
2023/03/25 04:43:27;;;;;;;;;;;;;;;5.18;67.03;97942.28;5064810;28;4719;-78
2023/03/25 04:46:15;;;;;;;;;;;;;;;5.35;66.72;97939.53;5065677;28;5021;-78
2023/03/25 04:48:43;;;;;;;;;;;;;;;5.22;67.10;97946.06;5066767;28;4955;-77
2023/03/25 04:51:11;;;;;;;;;;;;;;;5.20;67.23;97945.50;5062229;28;4908;-78
2023/03/25 04:53:37;;;;;;;;;;;;;;;5.28;67.00;97951.47;5065489;28;4704;-78
2023/03/25 04:56:04;;;;;;;;;;;;;;;5.24;66.92;97945.81;5066466;28;5028;-76
2023/03/25 04:58:30;;;;;;;;;;;;;;;5.32;66.63;97948.03;5068058;28;5084;-79
2023/03/25 05:01:04;;;;;;;;;;;;;;;5.21;67.04;97951.66;5046183;28;4919;-77
2023/03/25 05:03:51;;;;;;;;;;;;;;;5.21;67.04;97949.78;5058262;28;4529;-78
2023/03/25 05:06:38;;;;;;;;;;;;;;;5.16;67.15;97943.59;5050137;28;4606;-79
2023/03/25 05:09:30;;;;;;;;;;;;;;;5.17;67.11;97951.31;5064198;28;5045;-78
2023/03/25 05:11:57;;;;;;;;;;;;;;;5.18;67.25;97946.81;5065728;28;4884;-78
2023/03/25 05:14:23;;;;;;;;;;;;;;;5.18;67.09;97952.97;5062921;28;4975;-78
2023/03/25 05:16:50;;;;;;;;;;;;;;;5.12;67.38;97945.13;5064532;28;4955;-79
2023/03/25 05:19:36;;;;;;;;;;;;;;;5.14;67.13;97956.34;5063431;28;4862;-78
2023/03/25 05:22:23;;;;;;;;;;;;;;;5.17;67.30;97954.00;5054430;28;4806;-78
2023/03/25 05:24:52;;;;;;;;;;;;;;;5.15;67.07;97956.13;5062671;28;5034;-77
2023/03/25 05:27:19;;;;;;;;;;;;;;;5.19;67.17;97957.22;5061622;28;4739;-76
2023/03/25 05:30:10;;;;;;;;;;;;;;;5.20;66.93;97958.84;5063844;28;4988;-77
2023/03/25 05:32:39;;;;;;;;;;;;;;;5.18;67.04;97966.28;5062707;28;4989;-77
2023/03/25 05:35:26;;;;;;;;;;;;;;;5.09;67.31;97962.44;5065952;28;4728;-77
2023/03/25 05:37:53;;;;;;;;;;;;;;;5.05;67.41;97960.50;5064361;28;5044;-77
2023/03/25 05:40:20;;;;;;;;;;;;;;;5.10;67.36;97960.59;5062912;28;5019;-77
2023/03/25 05:42:47;;;;;;;;;;;;;;;5.15;67.20;97966.00;5066291;28;5093;-77
2023/03/25 05:45:14;;;;;;;;;;;;;;;5.13;67.26;97965.41;5063981;28;5013;-78
2023/03/25 05:48:01;;;;;;;;;;;;;;;5.10;67.30;97966.72;5062770;28;5155;-78
2023/03/25 05:50:47;;;;;;;;;;;;;;;5.16;67.12;97965.72;5062984;28;4751;-78
2023/03/25 05:53:34;;;;;;;;;;;;;;;5.08;67.38;97971.50;5070861;28;4798;-78
2023/03/25 05:56:02;;;;;;;;;;;;;;;5.08;67.36;97970.69;5047608;28;4667;-77
2023/03/25 05:58:31;;;;;;;;;;;;;;;5.05;67.61;97971.97;5049309;28;5019;-76
2023/03/25 06:01:03;;;;;;;;;;;;;;;5.07;67.59;97979.75;5063627;28;5021;-77
2023/03/25 06:03:29;;;;;;;;;;;;;;;5.09;67.41;97980.28;5061087;28;5142;-78
2023/03/25 06:05:56;;;;;;;;;;;;;;;5.14;67.15;97977.69;5057585;28;4907;-77
2023/03/25 06:08:25;;;;;;;;;;;;;;;5.11;67.24;97980.84;5048334;28;4257;-77
2023/03/25 06:10:53;;;;;;;;;;;;;;;5.13;66.97;97984.09;5065148;28;4737;-76
2023/03/25 06:13:20;;;;;;;;;;;;;;;5.11;67.18;97992.34;5063253;28;4911;-77
2023/03/25 06:15:46;;;;;;;;;;;;;;;5.06;67.35;97984.28;5068849;28;4784;-78
2023/03/25 06:18:13;;;;;;;;;;;;;;;5.15;67.22;97992.66;5063862;28;4850;-77
2023/03/25 06:20:40;;;;;;;;;;;;;;;5.06;67.24;97994.97;5049937;28;4886;-77
2023/03/25 06:23:06;;;;;;;;;;;;;;;5.08;67.36;98006.16;5062525;28;5404;-78
2023/03/25 06:25:33;;;;;;;;;;;;;;;5.07;67.28;98009.91;5064605;28;4833;-77
2023/03/25 06:28:02;;;;;;;;;;;;;;;5.09;67.27;98002.47;5064392;28;4947;-78
2023/03/25 06:30:28;;;;;;;;;;;;;;;5.14;67.04;98001.72;5064561;28;5031;-78
2023/03/25 06:32:56;;;;;;;;;;;;;;;5.03;67.49;98005.28;5067960;28;4941;-78
2023/03/25 06:35:22;;;;;;;;;;;;;;;5.15;67.21;98016.69;5065364;28;4877;-78
2023/03/25 06:37:49;;;;;;;;;;;;;;;5.06;67.53;98008.28;5050422;28;4848;-78
2023/03/25 06:40:16;;;;;;;;;;;;;;;5.06;67.35;98018.13;5064641;28;4978;-78
2023/03/25 06:42:42;;;;;;;;;;;;;;;5.07;67.39;98014.44;5051932;28;5164;-77
2023/03/25 06:45:09;;;;;;;;;;;;;;;5.03;67.49;98026.63;5063831;28;4879;-78
2023/03/25 06:47:36;;;;;;;;;;;;;;;5.03;67.63;98026.63;5046132;28;4845;-77
2023/03/25 06:50:02;;;;;;;;;;;;;;;4.98;67.70;98036.19;5067532;28;4667;-77
2023/03/25 06:52:29;;;;;;;;;;;;;;;5.12;67.21;98031.31;5048461;28;4693;-78
2023/03/25 06:54:55;;;;;;;;;;;;;;;5.01;67.43;98030.34;5065519;28;4880;-78
2023/03/25 06:57:22;;;;;;;;;;;;;;;5.00;67.46;98033.28;5058448;28;4905;-79
2023/03/25 06:59:49;;;;;;;;;;;;;;;4.97;67.69;98037.25;5049944;28;4790;-78
2023/03/25 07:02:15;;;;;;;;;;;;;;;5.02;67.49;98036.50;5064415;28;5068;-79
2023/03/25 07:04:42;;;;;;;;;;;;;;;5.16;66.99;98040.44;5041716;28;5039;-78
2023/03/25 07:07:08;;;;;;;;;;;;;;;5.08;67.18;98048.06;5068377;28;4991;-78
2023/03/25 07:09:35;;;;;;;;;;;;;;;4.98;67.47;98044.19;5048325;28;4818;-78
2023/03/25 07:12:01;;;;;;;;;;;;;;;5.07;67.39;98044.59;5048582;28;4654;-78
2023/03/25 07:14:28;;;;;;;;;;;;;;;4.97;67.66;98044.41;5063185;28;4842;-78
2023/03/25 07:16:55;;;;;;;;;;;;;;;4.97;67.56;98049.75;5061019;28;4758;-77
2023/03/25 07:19:21;;;;;;;;;;;;;;;5.07;67.26;98051.78;5065662;28;4862;-78
2023/03/25 07:21:48;;;;;;;;;;;;;;;4.98;67.51;98062.88;5063795;28;4881;-77
2023/03/25 07:24:14;;;;;;;;;;;;;;;4.91;67.77;98064.91;5047973;28;4853;-78
2023/03/25 07:26:41;;;;;;;;;;;;;;;5.03;67.32;98067.47;5062794;28;5118;-78
2023/03/25 07:29:08;;;;;;;;;;;;;;;5.03;67.39;98064.81;5063182;28;4904;-76
2023/03/25 07:31:34;;;;;;;;;;;;;;;5.05;67.36;98069.88;5048008;28;5195;-78
2023/03/25 07:34:01;;;;;;;;;;;;;;;5.03;67.63;98070.16;5066382;28;4903;-78
2023/03/25 07:36:28;;;;;;;;;;;;;;;5.06;67.41;98083.00;5062344;28;4937;-78
2023/03/25 07:38:54;;;;;;;;;;;;;;;5.03;67.43;98083.50;5064135;28;4645;-77
2023/03/25 07:41:21;;;;;;;;;;;;;;;5.04;67.32;98092.28;5057130;28;4951;-78
2023/03/25 07:43:47;;;;;;;;;;;;;;;4.99;67.42;98099.16;5066341;28;4734;-78
2023/03/25 07:46:14;;;;;;;;;;;;;;;5.00;67.55;98097.31;5064995;28;4611;-78
2023/03/25 07:48:41;;;;;;;;;;;;;;;5.04;67.28;98094.97;5059809;28;4955;-78
2023/03/25 07:51:08;;;;;;;;;;;;;;;5.13;67.03;98096.16;5044870;28;4820;-78
2023/03/25 07:53:37;;;;;;;;;;;;;;;5.06;67.23;98095.50;5062480;28;4863;-78
2023/03/25 07:56:04;;;;;;;;;;;;;;;5.08;67.48;98102.22;5064258;28;5019;-78
2023/03/25 07:58:31;;;;;;;;;;;;;;;5.09;67.24;98100.34;5066822;28;4880;-77
2023/03/25 08:00:57;;;;;;;;;;;;;;;5.06;67.38;98104.34;5065658;28;4004;-77
2023/03/25 08:03:24;;;;;;;;;;;;;;;5.05;67.51;98100.03;5043686;28;4993;-78
2023/03/25 08:05:50;;;;;;;;;;;;;;;5.03;67.43;98107.50;5065838;28;5141;-78
2023/03/25 08:08:17;;;;;;;;;;;;;;;5.13;67.08;98117.50;5059395;28;5132;-78
2023/03/25 08:10:43;;;;;;;;;;;;;;;5.12;67.13;98114.03;5047636;28;4756;-77
2023/03/25 08:13:10;;;;;;;;;;;;;;;5.18;66.77;98118.41;5063503;28;4865;-78
2023/03/25 08:15:37;;;;;;;;;;;;;;;5.10;67.20;98129.47;5061935;28;4891;-77
2023/03/25 08:18:05;;;;;;;;;;;;;;;5.10;67.23;98124.13;5046815;28;4747;-79
2023/03/25 08:20:31;;;;;;;;;;;;;;;5.12;66.98;98123.91;5040391;28;4755;-77
2023/03/25 08:22:58;;;;;;;;;;;;;;;5.20;66.87;98129.63;5067006;28;4723;-79
2023/03/25 08:25:24;;;;;;;;;;;;;;;5.07;67.22;98137.16;5044848;28;5022;-76
2023/03/25 08:27:51;;;;;;;;;;;;;;;5.11;67.07;98133.75;5066154;28;5009;-77
2023/03/25 08:30:18;;;;;;;;;;;;;;;5.13;67.15;98147.66;5061268;28;5018;-79
2023/03/25 08:32:45;;;;;;;;;;;;;;;5.07;67.21;98140.63;5063874;28;4974;-77
2023/03/25 08:35:11;;;;;;;;;;;;;;;5.15;67.22;98153.56;5063439;28;4917;-76
2023/03/25 08:37:38;;;;;;;;;;;;;;;5.15;67.05;98161.59;5062855;28;4975;-78
2023/03/25 08:40:07;;;;;;;;;;;;;;;5.07;67.28;98159.31;5068330;28;5124;-79
2023/03/25 08:42:34;;;;;;;;;;;;;;;5.14;67.06;98159.16;5042561;28;5059;-78
2023/03/25 08:45:00;;;;;;;;;;;;;;;5.10;67.36;98164.16;5070311;28;5041;-79
2023/03/25 08:47:27;;;;;;;;;;;;;;;5.13;67.09;98170.88;5046862;28;5183;-78
2023/03/25 08:49:55;;;;;;;;;;;;;;;5.04;67.31;98172.34;5045470;28;5084;-77
2023/03/25 08:52:21;;;;;;;;;;;;;;;5.03;67.63;98179.53;5061863;28;4907;-78
2023/03/25 08:54:48;;;;;;;;;;;;;;;5.10;67.47;98172.16;5058626;28;4987;-76
2023/03/25 08:57:14;;;;;;;;;;;;;;;5.12;67.24;98179.94;5061159;28;4709;-77
2023/03/25 08:59:41;;;;;;;;;;;;;;;5.04;67.58;98185.66;5058096;28;4591;-78
2023/03/25 09:02:08;;;;;;;;;;;;;;;5.03;67.57;98192.03;5053581;28;4823;-78
2023/03/25 09:04:34;;;;;;;;;;;;;;;5.10;67.16;98193.50;5041555;28;4430;-77
2023/03/25 09:07:00;;;;;;;;;;;;;;;5.03;67.58;98200.88;5059992;28;4918;-76
2023/03/25 09:09:28;;;;;;;;;;;;;;;5.29;66.92;98195.94;5064109;28;4902;-76
2023/03/25 09:11:55;;;;;;;;;;;;;;;5.15;66.94;98201.63;5062212;28;4821;-77
2023/03/25 09:14:21;;;;;;;;;;;;;;;5.27;67.01;98200.72;5061638;28;5000;-76
2023/03/25 09:16:48;;;;;;;;;;;;;;;5.16;67.08;98211.22;5062077;28;4628;-77
2023/03/25 09:19:14;;;;;;;;;;;;;;;5.08;67.35;98208.13;5067627;28;4995;-77
2023/03/25 09:21:41;;;;;;;;;;;;;;;5.13;67.31;98219.72;5047276;28;3441;-77
2023/03/25 09:24:08;;;;;;;;;;;;;;;5.34;66.27;98228.06;5046497;28;4646;-76
2023/03/25 09:26:38;;;;;;;;;;;;;;;5.13;67.17;98222.38;5063900;28;4828;-77
2023/03/25 09:29:05;;;;;;;;;;;;;;;5.19;67.17;98225.94;5043970;28;4842;-76
2023/03/25 09:31:32;;;;;;;;;;;;;;;5.17;67.00;98234.19;5037019;28;4986;-77
2023/03/25 09:34:01;;;;;;;;;;;;;;;5.11;67.19;98235.16;5040213;28;4628;-76
2023/03/25 09:36:27;;;;;;;;;;;;;;;5.12;67.51;98235.97;5063207;28;4908;-77
2023/03/25 09:38:54;;;;;;;;;;;;;;;5.12;67.37;98242.13;5042581;28;4890;-77
2023/03/25 09:41:20;;;;;;;;;;;;;;;5.11;67.32;98245.81;5061749;28;5127;-76
2023/03/25 09:43:55;;;;;;;;;;;;;;;5.21;67.16;98255.88;5037119;28;4885;-77
2023/03/25 09:46:22;;;;;;;;;;;;;;;5.24;66.91;98247.38;5041147;28;5121;-77
2023/03/25 09:48:49;;;;;;;;;;;;;;;5.26;66.89;98255.94;5062318;28;4985;-77
2023/03/25 09:51:15;;;;;;;;;;;;;;;5.16;67.14;98256.59;5036087;28;4732;-76
2023/03/25 09:53:42;;;;;;;;;;;;;;;5.07;67.58;98267.91;5061439;28;5161;-76
2023/03/25 09:56:08;;;;;;;;;;;;;;;5.18;67.20;98262.50;5060619;28;4592;-76
2023/03/25 09:58:35;;;;;;;;;;;;;;;5.22;67.06;98266.31;5060142;28;4826;-76
2023/03/25 10:01:01;;;;;;;;;;;;;;;5.25;67.14;98265.00;5061319;28;4134;-76
2023/03/25 10:03:28;;;;;;;;;;;;;;;5.34;66.67;98268.09;5042849;28;4681;-77
2023/03/25 10:05:55;;;;;;;;;;;;;;;5.31;66.67;98274.72;5043983;28;4764;-77
2023/03/25 10:08:21;;;;;;;;;;;;;;;5.15;67.34;98270.19;5062547;28;4782;-76
2023/03/25 10:10:48;;;;;;;;;;;;;;;5.05;67.81;98270.78;5044410;28;4624;-77
2023/03/25 10:13:14;;;;;;;;;;;;;;;5.29;67.08;98282.16;5037836;28;4150;-77
2023/03/25 10:15:42;;;;;;;;;;;;;;;5.32;66.65;98281.66;5037001;28;4403;-75
2023/03/25 10:18:08;;;;;;;;;;;;;;;5.29;66.82;98276.00;5045366;28;4158;-77
2023/03/25 10:20:35;;;;;;;;;;;;;;;5.25;66.95;98283.69;5057249;28;4203;-77
2023/03/25 10:23:02;;;;;;;;;;;;;;;5.33;66.80;98280.63;5046364;28;4451;-75
2023/03/25 10:25:29;;;;;;;;;;;;;;;5.27;66.98;98289.63;5059754;28;4884;-75
2023/03/25 10:27:56;;;;;;;;;;;;;;;5.27;66.92;98286.13;5059348;28;5051;-76
2023/03/25 10:30:22;;;;;;;;;;;;;;;5.19;67.37;98293.47;5062294;28;4898;-77
2023/03/25 10:32:49;;;;;;;;;;;;;;;5.09;67.65;98292.47;5062460;28;3998;-77
2023/03/25 10:35:16;;;;;;;;;;;;;;;5.18;67.40;98301.72;5047001;28;4505;-75
2023/03/25 10:37:43;;;;;;;;;;;;;;;5.35;66.78;98299.06;5058070;28;4705;-76
2023/03/25 10:40:10;;;;;;;;;;;;;;;5.32;67.02;98302.22;5064835;28;4602;-76
2023/03/25 10:42:36;;;;;;;;;;;;;;;5.35;66.72;98299.88;5065361;28;4894;-77
2023/03/25 10:45:03;;;;;;;;;;;;;;;5.15;67.45;98303.00;5060821;28;5624;-77
2023/03/25 10:47:29;;;;;;;;;;;;;;;5.11;67.66;98301.84;5043778;28;4025;-76
2023/03/25 10:49:58;;;;;;;;;;;;;;;5.09;67.80;98316.47;5062014;28;4148;-76
2023/03/25 10:52:24;;;;;;;;;;;;;;;5.19;67.58;98314.81;5066219;28;5111;-77
2023/03/25 10:54:51;;;;;;;;;;;;;;;5.33;66.90;98322.53;5066374;28;4017;-77
2023/03/25 10:57:17;;;;;;;;;;;;;;;5.29;67.06;98324.06;5064853;28;4921;-76
2023/03/25 10:59:44;;;;;;;;;;;;;;;5.11;67.60;98325.88;5041644;28;4888;-76
2023/03/25 11:02:10;;;;;;;;;;;;;;;5.07;67.79;98331.94;5044647;28;4613;-76
2023/03/25 11:04:37;;;;;;;;;;;;;;;5.16;67.70;98327.84;5064582;28;4028;-76
2023/03/25 11:07:06;;;;;;;;;;;;;;;5.32;67.40;98340.41;5058125;28;5013;-76
2023/03/25 11:09:35;;;;;;;;;;;;;;;5.20;67.57;98340.44;5064307;28;4124;-76
2023/03/25 11:12:02;;;;;;;;;;;;;;;5.03;68.24;98350.28;5059175;28;5146;-76
2023/03/25 11:14:28;;;;;;;;;;;;;;;5.01;68.28;98350.50;5065479;28;4649;-76
2023/03/25 11:16:55;;;;;;;;;;;;;;;5.08;67.98;98358.38;5064763;28;4720;-76
2023/03/25 11:19:22;;;;;;;;;;;;;;;5.01;68.33;98355.03;5068312;28;4793;-77
2023/03/25 11:21:48;;;;;;;;;;;;;;;5.03;68.45;98360.97;5046565;28;4775;-74
2023/03/25 11:24:15;;;;;;;;;;;;;;;5.01;68.44;98361.19;5064174;28;4895;-77
2023/03/25 11:26:41;;;;;;;;;;;;;;;5.07;68.21;98364.75;5066419;28;4994;-77
2023/03/25 11:29:08;;;;;;;;;;;;;;;5.05;68.33;98366.03;5065540;28;4789;-77
2023/03/25 11:31:35;;;;;;;;;;;;;;;5.03;68.51;98368.13;5058004;28;4694;-76
2023/03/25 11:34:02;;;;;;;;;;;;;;;5.06;68.43;98365.81;5063389;28;4751;-76
2023/03/25 11:36:28;;;;;;;;;;;;;;;5.23;67.68;98366.69;5044460;28;4990;-77
2023/03/25 11:38:55;;;;;;;;;;;;;;;5.09;68.30;98376.00;5047405;28;5070;-77
2023/03/25 11:41:22;;;;;;;;;;;;;;;5.17;67.97;98374.81;5042588;28;4764;-75
2023/03/25 11:43:48;;;;;;;;;;;;;;;5.20;68.06;98382.34;5047321;28;5078;-77
2023/03/25 11:46:15;;;;;;;;;;;;;;;5.30;67.54;98382.56;5052097;28;4603;-76
2023/03/25 11:48:41;;;;;;;;;;;;;;;5.26;67.59;98392.06;5047684;28;4625;-75
2023/03/25 11:51:08;;;;;;;;;;;;;;;5.21;67.77;98389.31;5047835;28;5067;-76
2023/03/25 11:53:34;;;;;;;;;;;;;;;5.21;67.98;98395.47;5049918;28;4760;-76
2023/03/25 11:56:02;;;;;;;;;;;;;;;5.17;68.21;98398.81;5047889;28;4743;-76
2023/03/25 11:58:30;;;;;;;;;;;;;;;5.14;68.07;98399.31;5044686;28;4589;-75
2023/03/25 12:00:57;;;;;;;;;;;;;;;5.14;68.13;98394.78;5047722;28;4904;-75
2023/03/25 12:03:23;;;;;;;;;;;;;;;5.14;68.39;98396.63;5052452;28;4517;-76
2023/03/25 12:05:50;;;;;;;;;;;;;;;5.22;68.06;98399.75;5045723;28;5029;-76
2023/03/25 12:08:16;;;;;;;;;;;;;;;5.19;68.24;98410.09;5048696;28;4741;-75
2023/03/25 12:10:43;;;;;;;;;;;;;;;5.11;68.38;98413.13;5046688;28;4708;-75
2023/03/25 12:13:09;;;;;;;;;;;;;;;5.17;68.37;98415.66;5046779;28;4693;-76
2023/03/25 12:15:36;;;;;;;;;;;;;;;5.14;68.43;98418.78;5029304;28;4714;-76
2023/03/25 12:18:03;;;;;;;;;;;;;;;5.14;68.42;98420.66;5046891;28;4493;-77
2023/03/25 12:20:29;;;;;;;;;;;;;;;5.17;68.27;98428.19;5045302;28;4033;-76
2023/03/25 12:22:56;;;;;;;;;;;;;;;5.21;68.19;98418.69;5045738;28;4714;-76
2023/03/25 12:25:25;;;;;;;;;;;;;;;5.36;67.76;98426.16;5025895;28;4628;-77
2023/03/25 12:27:52;;;;;;;;;;;;;;;5.53;67.06;98427.03;5029322;28;4660;-75
2023/03/25 12:30:19;;;;;;;;;;;;;;;5.42;67.44;98425.22;5048609;28;4938;-76
2023/03/25 12:32:46;;;;;;;;;;;;;;;5.38;67.46;98427.56;5027020;28;4558;-76
2023/03/25 12:35:13;;;;;;;;;;;;;;;5.42;67.35;98428.69;5032510;28;4566;-76
2023/03/25 12:37:40;;;;;;;;;;;;;;;5.31;67.77;98437.53;5027277;28;4583;-77
2023/03/25 12:40:09;;;;;;;;;;;;;;;5.29;67.90;98439.63;5049218;28;4560;-78
2023/03/25 12:42:35;;;;;;;;;;;;;;;5.46;67.23;98442.38;5048500;28;4808;-77
2023/03/25 12:45:02;;;;;;;;;;;;;;;5.45;67.45;98446.09;5032693;28;4991;-76
2023/03/25 12:47:28;;;;;;;;;;;;;;;5.42;67.57;98446.56;5039327;28;4936;-76
2023/03/25 12:49:55;;;;;;;;;;;;;;;5.42;67.52;98451.91;5029867;28;4892;-77
2023/03/25 12:52:22;;;;;;;;;;;;;;;5.43;67.46;98457.00;5025738;28;4915;-79
2023/03/25 12:54:49;;;;;;;;;;;;;;;5.40;67.62;98451.34;5048256;28;4711;-78
2023/03/25 12:57:15;;;;;;;;;;;;;;;5.33;67.87;98454.16;5046081;28;5034;-75
2023/03/25 12:59:42;;;;;;;;;;;;;;;5.30;67.99;98448.47;5046251;28;4772;-76
2023/03/25 13:02:08;;;;;;;;;;;;;;;5.35;67.80;98449.38;5033773;28;4750;-75
2023/03/25 13:04:35;;;;;;;;;;;;;;;5.37;67.87;98455.28;5047374;28;4688;-77
2023/03/25 13:07:01;;;;;;;;;;;;;;;5.33;68.03;98461.34;5043349;28;4599;-77
2023/03/25 13:09:28;;;;;;;;;;;;;;;5.44;67.55;98465.81;5048050;28;4824;-77
2023/03/25 13:11:54;;;;;;;;;;;;;;;5.51;67.38;98466.50;5044836;28;4710;-76